sensor_id;sensor_type;location;lat;lon;timestamp;P1;durP1;ratioP1;P2;durP2;ratioP2
30519;SDS011;17300;50.374;8.006;2023-04-25T00:00:35;3.10;;;2.80;;
30519;SDS011;17300;50.374;8.006;2023-04-25T00:03:01;3.43;;;3.13;;
30519;SDS011;17300;50.374;8.006;2023-04-25T00:05:30;3.27;;;2.97;;
30519;SDS011;17300;50.374;8.006;2023-04-25T00:07:58;3.43;;;3.00;;
30519;SDS011;17300;50.374;8.006;2023-04-25T00:10:25;3.20;;;2.90;;
30519;SDS011;17300;50.374;8.006;2023-04-25T00:12:51;3.40;;;3.10;;
30519;SDS011;17300;50.374;8.006;2023-04-25T00:15:18;3.00;;;2.70;;
30519;SDS011;17300;50.374;8.006;2023-04-25T00:17:45;3.37;;;3.07;;
30519;SDS011;17300;50.374;8.006;2023-04-25T00:20:12;3.03;;;2.73;;
30519;SDS011;17300;50.374;8.006;2023-04-25T00:22:39;3.10;;;2.87;;
30519;SDS011;17300;50.374;8.006;2023-04-25T00:25:07;3.17;;;2.87;;
30519;SDS011;17300;50.374;8.006;2023-04-25T00:27:34;3.70;;;3.40;;
30519;SDS011;17300;50.374;8.006;2023-04-25T00:30:01;4.03;;;3.20;;
30519;SDS011;17300;50.374;8.006;2023-04-25T00:32:28;3.30;;;3.00;;
30519;SDS011;17300;50.374;8.006;2023-04-25T00:34:55;3.40;;;3.20;;
30519;SDS011;17300;50.374;8.006;2023-04-25T00:37:22;3.80;;;3.50;;
30519;SDS011;17300;50.374;8.006;2023-04-25T00:39:49;3.40;;;3.10;;
30519;SDS011;17300;50.374;8.006;2023-04-25T00:42:19;3.60;;;3.30;;
30519;SDS011;17300;50.374;8.006;2023-04-25T00:44:46;3.63;;;3.30;;
30519;SDS011;17300;50.374;8.006;2023-04-25T00:47:14;3.30;;;3.00;;
30519;SDS011;17300;50.374;8.006;2023-04-25T00:49:41;3.57;;;3.27;;
30519;SDS011;17300;50.374;8.006;2023-04-25T00:52:08;3.53;;;3.27;;
30519;SDS011;17300;50.374;8.006;2023-04-25T00:54:35;4.63;;;3.23;;
30519;SDS011;17300;50.374;8.006;2023-04-25T00:57:02;3.50;;;3.20;;
30519;SDS011;17300;50.374;8.006;2023-04-25T00:59:30;3.47;;;3.27;;
30519;SDS011;17300;50.374;8.006;2023-04-25T01:01:57;3.93;;;3.13;;
30519;SDS011;17300;50.374;8.006;2023-04-25T01:04:25;3.30;;;2.97;;
30519;SDS011;17300;50.374;8.006;2023-04-25T01:06:53;3.10;;;2.90;;
30519;SDS011;17300;50.374;8.006;2023-04-25T01:09:20;3.20;;;2.90;;
30519;SDS011;17300;50.374;8.006;2023-04-25T01:11:48;3.47;;;3.17;;
30519;SDS011;17300;50.374;8.006;2023-04-25T01:14:15;3.27;;;3.00;;
30519;SDS011;17300;50.374;8.006;2023-04-25T01:16:43;3.10;;;2.90;;
30519;SDS011;17300;50.374;8.006;2023-04-25T01:19:10;3.20;;;3.00;;
30519;SDS011;17300;50.374;8.006;2023-04-25T01:21:39;3.30;;;3.00;;
30519;SDS011;17300;50.374;8.006;2023-04-25T01:24:07;3.77;;;3.47;;
30519;SDS011;17300;50.374;8.006;2023-04-25T01:26:34;3.67;;;3.13;;
30519;SDS011;17300;50.374;8.006;2023-04-25T01:29:03;3.33;;;3.03;;
30519;SDS011;17300;50.374;8.006;2023-04-25T01:31:30;3.70;;;3.40;;
30519;SDS011;17300;50.374;8.006;2023-04-25T01:33:58;3.20;;;2.90;;
30519;SDS011;17300;50.374;8.006;2023-04-25T01:36:25;3.53;;;3.23;;
30519;SDS011;17300;50.374;8.006;2023-04-25T01:38:53;3.40;;;3.10;;
30519;SDS011;17300;50.374;8.006;2023-04-25T01:41:21;3.47;;;3.17;;
30519;SDS011;17300;50.374;8.006;2023-04-25T01:43:48;4.00;;;3.37;;
30519;SDS011;17300;50.374;8.006;2023-04-25T01:46:14;3.50;;;3.13;;
30519;SDS011;17300;50.374;8.006;2023-04-25T01:48:41;5.17;;;3.50;;
30519;SDS011;17300;50.374;8.006;2023-04-25T01:51:08;3.73;;;3.30;;
30519;SDS011;17300;50.374;8.006;2023-04-25T01:53:36;3.37;;;3.03;;
30519;SDS011;17300;50.374;8.006;2023-04-25T01:56:05;3.20;;;3.00;;
30519;SDS011;17300;50.374;8.006;2023-04-25T01:58:32;3.40;;;3.07;;
30519;SDS011;17300;50.374;8.006;2023-04-25T02:00:58;3.67;;;3.17;;
30519;SDS011;17300;50.374;8.006;2023-04-25T02:03:25;3.43;;;3.07;;
30519;SDS011;17300;50.374;8.006;2023-04-25T02:05:52;3.17;;;2.87;;
30519;SDS011;17300;50.374;8.006;2023-04-25T02:08:18;4.37;;;2.87;;
30519;SDS011;17300;50.374;8.006;2023-04-25T02:10:45;3.93;;;2.97;;
30519;SDS011;17300;50.374;8.006;2023-04-25T02:13:13;3.10;;;2.80;;
30519;SDS011;17300;50.374;8.006;2023-04-25T02:15:40;4.43;;;2.90;;
30519;SDS011;17300;50.374;8.006;2023-04-25T02:18:06;3.10;;;2.80;;
30519;SDS011;17300;50.374;8.006;2023-04-25T02:20:35;3.30;;;2.73;;
30519;SDS011;17300;50.374;8.006;2023-04-25T02:23:02;3.00;;;2.70;;
30519;SDS011;17300;50.374;8.006;2023-04-25T02:25:29;2.97;;;2.60;;
30519;SDS011;17300;50.374;8.006;2023-04-25T02:27:56;3.10;;;2.80;;
30519;SDS011;17300;50.374;8.006;2023-04-25T02:30:24;3.47;;;2.50;;
30519;SDS011;17300;50.374;8.006;2023-04-25T02:32:50;4.13;;;2.73;;
30519;SDS011;17300;50.374;8.006;2023-04-25T02:35:17;4.20;;;2.60;;
30519;SDS011;17300;50.374;8.006;2023-04-25T02:37:44;2.83;;;2.50;;
30519;SDS011;17300;50.374;8.006;2023-04-25T02:40:11;3.37;;;2.70;;
30519;SDS011;17300;50.374;8.006;2023-04-25T02:42:38;3.63;;;2.63;;
30519;SDS011;17300;50.374;8.006;2023-04-25T02:45:05;3.97;;;2.97;;
30519;SDS011;17300;50.374;8.006;2023-04-25T02:47:33;2.47;;;2.23;;
30519;SDS011;17300;50.374;8.006;2023-04-25T02:50:00;2.80;;;2.57;;
30519;SDS011;17300;50.374;8.006;2023-04-25T02:52:26;3.43;;;2.43;;
30519;SDS011;17300;50.374;8.006;2023-04-25T02:54:53;3.40;;;2.73;;
30519;SDS011;17300;50.374;8.006;2023-04-25T02:57:20;2.50;;;2.07;;
30519;SDS011;17300;50.374;8.006;2023-04-25T02:59:46;3.33;;;2.23;;
30519;SDS011;17300;50.374;8.006;2023-04-25T03:02:13;2.80;;;2.30;;
30519;SDS011;17300;50.374;8.006;2023-04-25T03:04:41;2.20;;;2.00;;
30519;SDS011;17300;50.374;8.006;2023-04-25T03:07:08;2.53;;;2.10;;
30519;SDS011;17300;50.374;8.006;2023-04-25T03:09:34;3.30;;;2.23;;
30519;SDS011;17300;50.374;8.006;2023-04-25T03:12:01;1.93;;;1.77;;
30519;SDS011;17300;50.374;8.006;2023-04-25T03:14:28;3.37;;;2.43;;
30519;SDS011;17300;50.374;8.006;2023-04-25T03:16:55;3.77;;;2.40;;
30519;SDS011;17300;50.374;8.006;2023-04-25T03:19:21;2.13;;;1.93;;
30519;SDS011;17300;50.374;8.006;2023-04-25T03:21:49;3.50;;;2.37;;
30519;SDS011;17300;50.374;8.006;2023-04-25T03:24:16;2.70;;;2.50;;
30519;SDS011;17300;50.374;8.006;2023-04-25T03:26:43;3.27;;;1.97;;
30519;SDS011;17300;50.374;8.006;2023-04-25T03:29:10;3.27;;;2.17;;
30519;SDS011;17300;50.374;8.006;2023-04-25T03:31:37;2.80;;;2.10;;
30519;SDS011;17300;50.374;8.006;2023-04-25T03:34:04;3.20;;;2.17;;
30519;SDS011;17300;50.374;8.006;2023-04-25T03:36:30;2.60;;;2.20;;
30519;SDS011;17300;50.374;8.006;2023-04-25T03:38:59;3.57;;;2.20;;
30519;SDS011;17300;50.374;8.006;2023-04-25T03:41:25;2.90;;;2.00;;
30519;SDS011;17300;50.374;8.006;2023-04-25T03:43:52;2.33;;;2.00;;
30519;SDS011;17300;50.374;8.006;2023-04-25T03:46:19;4.37;;;2.33;;
30519;SDS011;17300;50.374;8.006;2023-04-25T03:48:46;3.27;;;2.33;;
30519;SDS011;17300;50.374;8.006;2023-04-25T03:51:12;3.70;;;2.57;;
30519;SDS011;17300;50.374;8.006;2023-04-25T03:53:39;2.60;;;2.10;;
30519;SDS011;17300;50.374;8.006;2023-04-25T03:56:07;4.77;;;2.53;;
30519;SDS011;17300;50.374;8.006;2023-04-25T03:58:34;4.30;;;2.30;;
30519;SDS011;17300;50.374;8.006;2023-04-25T04:01:01;4.37;;;2.73;;
30519;SDS011;17300;50.374;8.006;2023-04-25T04:03:32;4.03;;;2.67;;
30519;SDS011;17300;50.374;8.006;2023-04-25T04:05:59;2.87;;;2.57;;
30519;SDS011;17300;50.374;8.006;2023-04-25T04:08:25;4.43;;;2.70;;
30519;SDS011;17300;50.374;8.006;2023-04-25T04:10:52;4.97;;;2.67;;
30519;SDS011;17300;50.374;8.006;2023-04-25T04:13:20;5.40;;;2.60;;
30519;SDS011;17300;50.374;8.006;2023-04-25T04:15:46;5.60;;;3.00;;
30519;SDS011;17300;50.374;8.006;2023-04-25T04:18:13;4.60;;;2.33;;
30519;SDS011;17300;50.374;8.006;2023-04-25T04:20:40;4.47;;;3.20;;
30519;SDS011;17300;50.374;8.006;2023-04-25T04:23:06;4.50;;;3.10;;
30519;SDS011;17300;50.374;8.006;2023-04-25T04:25:33;5.17;;;3.00;;
30519;SDS011;17300;50.374;8.006;2023-04-25T04:28:00;4.77;;;3.17;;
30519;SDS011;17300;50.374;8.006;2023-04-25T04:30:28;5.07;;;2.70;;
30519;SDS011;17300;50.374;8.006;2023-04-25T04:32:55;4.37;;;2.70;;
30519;SDS011;17300;50.374;8.006;2023-04-25T04:35:22;4.47;;;3.00;;
30519;SDS011;17300;50.374;8.006;2023-04-25T04:37:49;4.27;;;2.90;;
30519;SDS011;17300;50.374;8.006;2023-04-25T04:40:16;6.23;;;3.57;;
30519;SDS011;17300;50.374;8.006;2023-04-25T04:42:44;6.20;;;3.00;;
30519;SDS011;17300;50.374;8.006;2023-04-25T04:45:11;4.80;;;3.10;;
30519;SDS011;17300;50.374;8.006;2023-04-25T04:47:39;4.13;;;3.07;;
30519;SDS011;17300;50.374;8.006;2023-04-25T04:50:06;5.97;;;3.10;;
30519;SDS011;17300;50.374;8.006;2023-04-25T04:52:34;6.17;;;3.40;;
30519;SDS011;17300;50.374;8.006;2023-04-25T04:55:01;4.10;;;3.13;;
30519;SDS011;17300;50.374;8.006;2023-04-25T04:57:28;3.40;;;3.00;;
30519;SDS011;17300;50.374;8.006;2023-04-25T04:59:56;5.57;;;3.60;;
30519;SDS011;17300;50.374;8.006;2023-04-25T05:02:22;5.77;;;3.57;;
30519;SDS011;17300;50.374;8.006;2023-04-25T05:04:50;4.87;;;3.47;;
30519;SDS011;17300;50.374;8.006;2023-04-25T05:07:17;5.00;;;3.40;;
30519;SDS011;17300;50.374;8.006;2023-04-25T05:09:44;5.67;;;3.47;;
30519;SDS011;17300;50.374;8.006;2023-04-25T05:12:11;4.63;;;3.30;;
30519;SDS011;17300;50.374;8.006;2023-04-25T05:14:37;4.53;;;3.27;;
30519;SDS011;17300;50.374;8.006;2023-04-25T05:17:04;5.83;;;3.30;;
30519;SDS011;17300;50.374;8.006;2023-04-25T05:19:33;4.00;;;3.50;;
30519;SDS011;17300;50.374;8.006;2023-04-25T05:22:01;3.33;;;3.03;;
30519;SDS011;17300;50.374;8.006;2023-04-25T05:24:28;4.53;;;3.40;;
30519;SDS011;17300;50.374;8.006;2023-04-25T05:26:55;4.73;;;3.30;;
30519;SDS011;17300;50.374;8.006;2023-04-25T05:29:22;4.57;;;3.80;;
30519;SDS011;17300;50.374;8.006;2023-04-25T05:31:49;6.73;;;4.03;;
30519;SDS011;17300;50.374;8.006;2023-04-25T05:34:15;6.53;;;3.60;;
30519;SDS011;17300;50.374;8.006;2023-04-25T05:36:42;6.27;;;3.60;;
30519;SDS011;17300;50.374;8.006;2023-04-25T05:39:10;6.50;;;4.00;;
30519;SDS011;17300;50.374;8.006;2023-04-25T05:41:37;5.80;;;3.60;;
30519;SDS011;17300;50.374;8.006;2023-04-25T05:44:04;6.53;;;3.47;;
30519;SDS011;17300;50.374;8.006;2023-04-25T05:46:31;5.37;;;3.33;;
30519;SDS011;17300;50.374;8.006;2023-04-25T05:48:58;4.90;;;3.70;;
30519;SDS011;17300;50.374;8.006;2023-04-25T05:51:24;4.50;;;3.10;;
30519;SDS011;17300;50.374;8.006;2023-04-25T05:53:52;4.33;;;3.10;;
30519;SDS011;17300;50.374;8.006;2023-04-25T05:56:20;3.13;;;2.83;;
30519;SDS011;17300;50.374;8.006;2023-04-25T05:58:47;2.63;;;2.30;;
30519;SDS011;17300;50.374;8.006;2023-04-25T06:01:13;2.67;;;2.47;;
30519;SDS011;17300;50.374;8.006;2023-04-25T06:03:40;3.60;;;2.70;;
30519;SDS011;17300;50.374;8.006;2023-04-25T06:06:08;5.53;;;2.87;;
30519;SDS011;17300;50.374;8.006;2023-04-25T06:08:35;4.17;;;2.00;;
30519;SDS011;17300;50.374;8.006;2023-04-25T06:11:02;2.73;;;2.00;;
30519;SDS011;17300;50.374;8.006;2023-04-25T06:13:30;2.43;;;1.73;;
30519;SDS011;17300;50.374;8.006;2023-04-25T06:15:57;4.17;;;2.00;;
30519;SDS011;17300;50.374;8.006;2023-04-25T06:18:24;3.57;;;2.10;;
30519;SDS011;17300;50.374;8.006;2023-04-25T06:20:50;2.83;;;2.00;;
30519;SDS011;17300;50.374;8.006;2023-04-25T06:23:17;2.50;;;1.57;;
30519;SDS011;17300;50.374;8.006;2023-04-25T06:25:44;3.22;;;1.80;;
30519;SDS011;17300;50.374;8.006;2023-04-25T06:28:10;2.95;;;1.95;;
30519;SDS011;17300;50.374;8.006;2023-04-25T06:30:38;2.25;;;1.52;;
30519;SDS011;17300;50.374;8.006;2023-04-25T06:33:05;2.35;;;1.35;;
30519;SDS011;17300;50.374;8.006;2023-04-25T06:35:33;2.13;;;1.58;;
30519;SDS011;17300;50.374;8.006;2023-04-25T06:38:00;2.60;;;1.50;;
30519;SDS011;17300;50.374;8.006;2023-04-25T06:40:27;2.67;;;1.40;;
30519;SDS011;17300;50.374;8.006;2023-04-25T06:42:53;1.63;;;1.40;;
30519;SDS011;17300;50.374;8.006;2023-04-25T06:45:20;2.25;;;1.65;;
30519;SDS011;17300;50.374;8.006;2023-04-25T06:47:48;2.47;;;1.85;;
30519;SDS011;17300;50.374;8.006;2023-04-25T06:50:14;2.50;;;1.53;;
30519;SDS011;17300;50.374;8.006;2023-04-25T06:52:41;2.87;;;1.77;;
30519;SDS011;17300;50.374;8.006;2023-04-25T06:55:08;2.50;;;1.77;;
30519;SDS011;17300;50.374;8.006;2023-04-25T06:57:35;2.77;;;1.93;;
30519;SDS011;17300;50.374;8.006;2023-04-25T07:00:02;3.03;;;1.87;;
30519;SDS011;17300;50.374;8.006;2023-04-25T07:02:33;3.13;;;2.27;;
30519;SDS011;17300;50.374;8.006;2023-04-25T07:05:01;2.40;;;1.80;;
30519;SDS011;17300;50.374;8.006;2023-04-25T07:07:29;2.60;;;2.20;;
30519;SDS011;17300;50.374;8.006;2023-04-25T07:09:55;2.90;;;1.87;;
30519;SDS011;17300;50.374;8.006;2023-04-25T07:12:22;3.20;;;2.20;;
30519;SDS011;17300;50.374;8.006;2023-04-25T07:14:49;3.37;;;2.23;;
30519;SDS011;17300;50.374;8.006;2023-04-25T07:17:15;2.80;;;2.40;;
30519;SDS011;17300;50.374;8.006;2023-04-25T07:19:42;3.57;;;2.40;;
30519;SDS011;17300;50.374;8.006;2023-04-25T07:22:10;3.23;;;2.63;;
30519;SDS011;17300;50.374;8.006;2023-04-25T07:24:36;4.10;;;2.63;;
30519;SDS011;17300;50.374;8.006;2023-04-25T07:27:03;3.70;;;2.50;;
30519;SDS011;17300;50.374;8.006;2023-04-25T07:29:30;3.40;;;2.33;;
30519;SDS011;17300;50.374;8.006;2023-04-25T07:31:57;2.40;;;2.17;;
30519;SDS011;17300;50.374;8.006;2023-04-25T07:34:23;3.23;;;2.20;;
30519;SDS011;17300;50.374;8.006;2023-04-25T07:36:50;2.53;;;2.30;;
30519;SDS011;17300;50.374;8.006;2023-04-25T07:39:18;4.97;;;3.23;;
30519;SDS011;17300;50.374;8.006;2023-04-25T07:41:45;3.73;;;2.97;;
30519;SDS011;17300;50.374;8.006;2023-04-25T07:44:12;3.47;;;3.13;;
30519;SDS011;17300;50.374;8.006;2023-04-25T07:46:38;3.27;;;2.97;;
30519;SDS011;17300;50.374;8.006;2023-04-25T07:49:05;3.23;;;2.93;;
30519;SDS011;17300;50.374;8.006;2023-04-25T07:51:32;3.47;;;3.17;;
30519;SDS011;17300;50.374;8.006;2023-04-25T07:53:58;4.47;;;3.73;;
30519;SDS011;17300;50.374;8.006;2023-04-25T07:56:27;3.93;;;3.57;;
30519;SDS011;17300;50.374;8.006;2023-04-25T07:58:53;4.17;;;3.67;;
30519;SDS011;17300;50.374;8.006;2023-04-25T08:01:20;3.57;;;3.27;;
30519;SDS011;17300;50.374;8.006;2023-04-25T08:03:47;4.00;;;3.57;;
30519;SDS011;17300;50.374;8.006;2023-04-25T08:06:13;3.23;;;2.93;;
30519;SDS011;17300;50.374;8.006;2023-04-25T08:08:40;3.43;;;3.13;;
30519;SDS011;17300;50.374;8.006;2023-04-25T08:11:06;4.23;;;3.33;;
30519;SDS011;17300;50.374;8.006;2023-04-25T08:13:34;4.87;;;3.17;;
30519;SDS011;17300;50.374;8.006;2023-04-25T08:16:01;3.67;;;3.03;;
30519;SDS011;17300;50.374;8.006;2023-04-25T08:18:28;3.67;;;2.95;;
30519;SDS011;17300;50.374;8.006;2023-04-25T08:20:55;3.67;;;3.03;;
30519;SDS011;17300;50.374;8.006;2023-04-25T08:23:22;4.03;;;3.45;;
30519;SDS011;17300;50.374;8.006;2023-04-25T08:25:49;4.25;;;3.17;;
30519;SDS011;17300;50.374;8.006;2023-04-25T08:28:15;4.00;;;2.95;;
30519;SDS011;17300;50.374;8.006;2023-04-25T08:30:43;3.65;;;3.00;;
30519;SDS011;17300;50.374;8.006;2023-04-25T08:33:10;3.75;;;2.67;;
30519;SDS011;17300;50.374;8.006;2023-04-25T08:35:36;3.67;;;3.10;;
30519;SDS011;17300;50.374;8.006;2023-04-25T08:38:03;3.60;;;2.80;;
30519;SDS011;17300;50.374;8.006;2023-04-25T08:40:30;3.10;;;2.80;;
30519;SDS011;17300;50.374;8.006;2023-04-25T08:43:03;3.07;;;2.50;;
30519;SDS011;17300;50.374;8.006;2023-04-25T08:45:36;4.50;;;3.07;;
30519;SDS011;17300;50.374;8.006;2023-04-25T08:48:06;4.03;;;2.63;;
30519;SDS011;17300;50.374;8.006;2023-04-25T08:50:36;4.03;;;2.90;;
30519;SDS011;17300;50.374;8.006;2023-04-25T08:53:04;3.70;;;2.90;;
30519;SDS011;17300;50.374;8.006;2023-04-25T08:55:35;4.13;;;2.90;;
30519;SDS011;17300;50.374;8.006;2023-04-25T08:58:03;3.20;;;2.70;;
30519;SDS011;17300;50.374;8.006;2023-04-25T09:00:31;3.10;;;2.53;;
30519;SDS011;17300;50.374;8.006;2023-04-25T09:02:58;3.05;;;2.42;;
30519;SDS011;17300;50.374;8.006;2023-04-25T09:05:26;2.63;;;2.15;;
30519;SDS011;17300;50.374;8.006;2023-04-25T09:07:54;2.63;;;2.03;;
30519;SDS011;17300;50.374;8.006;2023-04-25T09:10:23;2.83;;;2.28;;
30519;SDS011;17300;50.374;8.006;2023-04-25T09:13:01;3.47;;;2.30;;
30519;SDS011;17300;50.374;8.006;2023-04-25T09:15:29;3.72;;;2.88;;
30519;SDS011;17300;50.374;8.006;2023-04-25T09:17:56;3.88;;;2.35;;
30519;SDS011;17300;50.374;8.006;2023-04-25T09:20:24;5.55;;;2.83;;
30519;SDS011;17300;50.374;8.006;2023-04-25T09:23:02;3.22;;;2.72;;
30519;SDS011;17300;50.374;8.006;2023-04-25T09:25:34;2.33;;;1.90;;
30519;SDS011;17300;50.374;8.006;2023-04-25T09:28:04;2.80;;;2.30;;
30519;SDS011;17300;50.374;8.006;2023-04-25T09:30:32;3.20;;;1.97;;
30519;SDS011;17300;50.374;8.006;2023-04-25T09:33:03;2.53;;;1.90;;
30519;SDS011;17300;50.374;8.006;2023-04-25T09:35:35;2.30;;;2.03;;
30519;SDS011;17300;50.374;8.006;2023-04-25T09:38:08;2.70;;;2.10;;
30519;SDS011;17300;50.374;8.006;2023-04-25T09:40:39;3.60;;;1.93;;
30519;SDS011;17300;50.374;8.006;2023-04-25T09:43:08;3.77;;;1.90;;
30519;SDS011;17300;50.374;8.006;2023-04-25T09:45:42;3.00;;;2.23;;
30519;SDS011;17300;50.374;8.006;2023-04-25T09:48:10;2.70;;;1.97;;
30519;SDS011;17300;50.374;8.006;2023-04-25T09:50:38;2.03;;;1.73;;
30519;SDS011;17300;50.374;8.006;2023-04-25T09:53:05;3.97;;;1.90;;
30519;SDS011;17300;50.374;8.006;2023-04-25T09:55:33;3.07;;;1.80;;
30519;SDS011;17300;50.374;8.006;2023-04-25T09:58:03;5.87;;;1.80;;
30519;SDS011;17300;50.374;8.006;2023-04-25T10:00:30;2.47;;;1.83;;
30519;SDS011;17300;50.374;8.006;2023-04-25T10:02:59;4.13;;;1.73;;
30519;SDS011;17300;50.374;8.006;2023-04-25T10:05:28;3.37;;;1.90;;
30519;SDS011;17300;50.374;8.006;2023-04-25T10:07:58;3.03;;;1.80;;
30519;SDS011;17300;50.374;8.006;2023-04-25T10:10:28;4.43;;;1.97;;
30519;SDS011;17300;50.374;8.006;2023-04-25T10:13:02;3.33;;;1.53;;
30519;SDS011;17300;50.374;8.006;2023-04-25T10:15:30;2.57;;;1.50;;
30519;SDS011;17300;50.374;8.006;2023-04-25T10:18:00;2.53;;;1.67;;
30519;SDS011;17300;50.374;8.006;2023-04-25T10:20:28;2.77;;;1.70;;
30519;SDS011;17300;50.374;8.006;2023-04-25T10:22:55;2.90;;;1.60;;
30519;SDS011;17300;50.374;8.006;2023-04-25T10:25:29;2.10;;;1.50;;
30519;SDS011;17300;50.374;8.006;2023-04-25T10:27:56;2.90;;;1.60;;
30519;SDS011;17300;50.374;8.006;2023-04-25T10:30:27;2.63;;;1.73;;
30519;SDS011;17300;50.374;8.006;2023-04-25T10:32:54;2.00;;;1.53;;
30519;SDS011;17300;50.374;8.006;2023-04-25T10:35:23;2.73;;;1.80;;
30519;SDS011;17300;50.374;8.006;2023-04-25T10:37:58;2.67;;;1.43;;
30519;SDS011;17300;50.374;8.006;2023-04-25T10:40:29;2.33;;;1.67;;
30519;SDS011;17300;50.374;8.006;2023-04-25T10:43:33;2.80;;;1.57;;
30519;SDS011;17300;50.374;8.006;2023-04-25T10:46:03;2.40;;;1.40;;
30519;SDS011;17300;50.374;8.006;2023-04-25T10:48:43;2.25;;;1.38;;
30519;SDS011;17300;50.374;8.006;2023-04-25T10:51:15;3.72;;;1.88;;
30519;SDS011;17300;50.374;8.006;2023-04-25T10:53:43;4.45;;;1.65;;
30519;SDS011;17300;50.374;8.006;2023-04-25T10:56:11;3.17;;;1.50;;
30519;SDS011;17300;50.374;8.006;2023-04-25T10:58:42;2.92;;;1.52;;
30519;SDS011;17300;50.374;8.006;2023-04-25T11:01:10;2.78;;;1.60;;
30519;SDS011;17300;50.374;8.006;2023-04-25T11:03:40;2.75;;;1.65;;
30519;SDS011;17300;50.374;8.006;2023-04-25T11:06:09;3.10;;;1.70;;
30519;SDS011;17300;50.374;8.006;2023-04-25T11:08:47;2.42;;;1.60;;
30519;SDS011;17300;50.374;8.006;2023-04-25T11:11:16;3.65;;;1.98;;
30519;SDS011;17300;50.374;8.006;2023-04-25T11:13:43;4.90;;;1.90;;
30519;SDS011;17300;50.374;8.006;2023-04-25T11:16:11;2.33;;;1.70;;
30519;SDS011;17300;50.374;8.006;2023-04-25T11:18:40;2.50;;;1.43;;
30519;SDS011;17300;50.374;8.006;2023-04-25T11:21:07;2.10;;;1.40;;
30519;SDS011;17300;50.374;8.006;2023-04-25T11:23:34;3.93;;;1.70;;
30519;SDS011;17300;50.374;8.006;2023-04-25T11:26:01;1.60;;;1.40;;
30519;SDS011;17300;50.374;8.006;2023-04-25T11:28:28;2.13;;;1.50;;
30519;SDS011;17300;50.374;8.006;2023-04-25T11:30:55;3.67;;;2.00;;
30519;SDS011;17300;50.374;8.006;2023-04-25T11:33:26;3.37;;;1.80;;
30519;SDS011;17300;50.374;8.006;2023-04-25T11:35:53;3.20;;;2.00;;
30519;SDS011;17300;50.374;8.006;2023-04-25T11:38:21;3.10;;;1.83;;
30519;SDS011;17300;50.374;8.006;2023-04-25T11:40:51;2.70;;;1.70;;
30519;SDS011;17300;50.374;8.006;2023-04-25T11:43:19;3.67;;;1.87;;
30519;SDS011;17300;50.374;8.006;2023-04-25T11:45:47;1.87;;;1.47;;
30519;SDS011;17300;50.374;8.006;2023-04-25T11:48:14;2.27;;;1.57;;
30519;SDS011;17300;50.374;8.006;2023-04-25T11:50:42;2.60;;;1.70;;
30519;SDS011;17300;50.374;8.006;2023-04-25T11:53:09;2.50;;;1.90;;
30519;SDS011;17300;50.374;8.006;2023-04-25T11:55:36;2.87;;;1.90;;
30519;SDS011;17300;50.374;8.006;2023-04-25T11:58:03;1.77;;;1.67;;
30519;SDS011;17300;50.374;8.006;2023-04-25T12:00:30;2.80;;;1.60;;
30519;SDS011;17300;50.374;8.006;2023-04-25T12:02:58;3.13;;;1.87;;
30519;SDS011;17300;50.374;8.006;2023-04-25T12:05:25;2.50;;;1.50;;
30519;SDS011;17300;50.374;8.006;2023-04-25T12:07:54;3.23;;;1.80;;
30519;SDS011;17300;50.374;8.006;2023-04-25T12:10:21;2.80;;;1.97;;
30519;SDS011;17300;50.374;8.006;2023-04-25T12:12:50;3.73;;;2.10;;
30519;SDS011;17300;50.374;8.006;2023-04-25T12:15:17;2.67;;;1.50;;
30519;SDS011;17300;50.374;8.006;2023-04-25T12:17:50;1.67;;;1.40;;
30519;SDS011;17300;50.374;8.006;2023-04-25T12:20:19;3.27;;;1.77;;
30519;SDS011;17300;50.374;8.006;2023-04-25T12:22:48;2.87;;;1.80;;
30519;SDS011;17300;50.374;8.006;2023-04-25T12:28:12;2.67;;;1.60;;
30519;SDS011;17300;50.374;8.006;2023-04-25T12:30:53;3.27;;;1.90;;
30519;SDS011;17300;50.374;8.006;2023-04-25T12:33:22;2.57;;;1.57;;
30519;SDS011;17300;50.374;8.006;2023-04-25T12:35:49;2.53;;;1.17;;
30519;SDS011;17300;50.374;8.006;2023-04-25T12:38:20;2.47;;;1.50;;
30519;SDS011;17300;50.374;8.006;2023-04-25T12:40:49;2.30;;;1.37;;
30519;SDS011;17300;50.374;8.006;2023-04-25T12:43:16;3.17;;;1.90;;
30519;SDS011;17300;50.374;8.006;2023-04-25T12:45:43;5.17;;;1.63;;
30519;SDS011;17300;50.374;8.006;2023-04-25T12:48:10;1.97;;;1.30;;
30519;SDS011;17300;50.374;8.006;2023-04-25T12:50:37;3.00;;;1.43;;
30519;SDS011;17300;50.374;8.006;2023-04-25T12:53:03;1.97;;;1.53;;
30519;SDS011;17300;50.374;8.006;2023-04-25T12:55:30;2.10;;;1.27;;
30519;SDS011;17300;50.374;8.006;2023-04-25T12:57:58;2.50;;;1.40;;
30519;SDS011;17300;50.374;8.006;2023-04-25T13:00:24;2.57;;;1.30;;
30519;SDS011;17300;50.374;8.006;2023-04-25T13:02:51;4.30;;;1.77;;
30519;SDS011;17300;50.374;8.006;2023-04-25T13:05:18;2.23;;;1.33;;
30519;SDS011;17300;50.374;8.006;2023-04-25T13:07:45;2.17;;;1.30;;
30519;SDS011;17300;50.374;8.006;2023-04-25T13:10:11;2.00;;;1.30;;
30519;SDS011;17300;50.374;8.006;2023-04-25T13:12:38;2.13;;;1.10;;
30519;SDS011;17300;50.374;8.006;2023-04-25T13:15:07;2.40;;;1.30;;
30519;SDS011;17300;50.374;8.006;2023-04-25T13:17:36;1.93;;;1.00;;
30519;SDS011;17300;50.374;8.006;2023-04-25T13:20:03;1.70;;;1.00;;
30519;SDS011;17300;50.374;8.006;2023-04-25T13:22:31;1.93;;;1.20;;
30519;SDS011;17300;50.374;8.006;2023-04-25T13:24:57;1.90;;;1.03;;
30519;SDS011;17300;50.374;8.006;2023-04-25T13:27:24;1.33;;;1.07;;
30519;SDS011;17300;50.374;8.006;2023-04-25T13:29:51;3.37;;;1.40;;
30519;SDS011;17300;50.374;8.006;2023-04-25T13:32:19;2.17;;;1.10;;
30519;SDS011;17300;50.374;8.006;2023-04-25T13:34:45;2.23;;;1.27;;
30519;SDS011;17300;50.374;8.006;2023-04-25T13:37:12;2.00;;;1.20;;
30519;SDS011;17300;50.374;8.006;2023-04-25T13:39:39;1.70;;;1.10;;
30519;SDS011;17300;50.374;8.006;2023-04-25T13:42:05;2.07;;;1.13;;
30519;SDS011;17300;50.374;8.006;2023-04-25T13:44:32;2.47;;;1.40;;
30519;SDS011;17300;50.374;8.006;2023-04-25T13:46:59;1.77;;;1.37;;
30519;SDS011;17300;50.374;8.006;2023-04-25T13:49:27;1.30;;;0.90;;
30519;SDS011;17300;50.374;8.006;2023-04-25T13:51:54;1.90;;;1.20;;
30519;SDS011;17300;50.374;8.006;2023-04-25T13:54:21;2.73;;;1.20;;
30519;SDS011;17300;50.374;8.006;2023-04-25T13:56:48;4.23;;;1.40;;
30519;SDS011;17300;50.374;8.006;2023-04-25T13:59:15;4.13;;;1.30;;
30519;SDS011;17300;50.374;8.006;2023-04-25T14:01:42;3.45;;;1.40;;
30519;SDS011;17300;50.374;8.006;2023-04-25T14:04:08;2.20;;;1.10;;
30519;SDS011;17300;50.374;8.006;2023-04-25T14:06:36;2.37;;;1.30;;
30519;SDS011;17300;50.374;8.006;2023-04-25T14:09:03;3.57;;;1.40;;
30519;SDS011;17300;50.374;8.006;2023-04-25T14:11:32;1.57;;;1.13;;
30519;SDS011;17300;50.374;8.006;2023-04-25T14:13:58;3.03;;;1.10;;
30519;SDS011;17300;50.374;8.006;2023-04-25T14:16:25;2.00;;;1.37;;
30519;SDS011;17300;50.374;8.006;2023-04-25T14:18:52;2.37;;;1.27;;
30519;SDS011;17300;50.374;8.006;2023-04-25T14:21:19;2.40;;;1.10;;
30519;SDS011;17300;50.374;8.006;2023-04-25T14:23:47;2.13;;;1.23;;
30519;SDS011;17300;50.374;8.006;2023-04-25T14:26:14;2.37;;;1.27;;
30519;SDS011;17300;50.374;8.006;2023-04-25T14:28:41;2.83;;;1.40;;
30519;SDS011;17300;50.374;8.006;2023-04-25T14:31:08;2.87;;;1.20;;
30519;SDS011;17300;50.374;8.006;2023-04-25T14:33:34;2.17;;;1.20;;
30519;SDS011;17300;50.374;8.006;2023-04-25T14:36:03;2.83;;;1.30;;
30519;SDS011;17300;50.374;8.006;2023-04-25T14:38:29;2.93;;;1.30;;
30519;SDS011;17300;50.374;8.006;2023-04-25T14:40:57;2.00;;;1.10;;
30519;SDS011;17300;50.374;8.006;2023-04-25T14:43:24;2.30;;;1.30;;
30519;SDS011;17300;50.374;8.006;2023-04-25T14:45:51;1.77;;;1.00;;
30519;SDS011;17300;50.374;8.006;2023-04-25T14:48:17;2.13;;;1.07;;
30519;SDS011;17300;50.374;8.006;2023-04-25T14:50:44;2.30;;;1.30;;
30519;SDS011;17300;50.374;8.006;2023-04-25T14:53:11;1.57;;;0.93;;